This is the latest recevied weather packets stored in our database for station/object KQ7A. If no packets are shown the sender has not sent any weather packets the latest 10 day(s).
| Time | Temp. | Humidity | Pressure | Rain* | Wind** | Luminosity | Snow |
|---|---|---|---|---|---|---|---|
| 1777580697 | 19.44° C | 26% | 1018.6 hPa | 0 mm | - | 743 W/m² | - |
| 1777580394 | 19.44° C | 26% | 1018.6 hPa | 0 mm | - | 742 W/m² | - |
| 1777580090 | 19.44° C | 26% | 1018.6 hPa | 0 mm | - | 744 W/m² | - |
| 1777579786 | 18.89° C | 32% | 1018.8 hPa | 0 mm | - | 752 W/m² | - |
| 1777579484 | 18.89° C | 30% | 1018.6 hPa | 0 mm | - | 750 W/m² | - |
| 1777579179 | 18.89° C | 27% | 1018.8 hPa | 0 mm | - | 759 W/m² | - |
| 1777577657 | 18.89° C | 27% | 1019 hPa | 0 mm | - | 775 W/m² | - |
| 1777577355 | 18.33° C | 27% | 1019.1 hPa | 0 mm | - | 790 W/m² | - |
| 1777577050 | 18.33° C | 25% | 1019.1 hPa | 0 mm | - | 786 W/m² | - |
| 1777576747 | 18.33° C | 27% | 1019.2 hPa | 0 mm | - | 774 W/m² | - |
| 1777576446 | 18.89° C | 27% | 1019.2 hPa | 0 mm | - | 807 W/m² | - |
| 1777576143 | 17.78° C | 30% | 1019.4 hPa | 0 mm | - | 812 W/m² | - |
| 1777575838 | 17.78° C | 31% | 1019.4 hPa | 0 mm | - | 831 W/m² | - |
| 1777574321 | 17.78° C | 38% | 1019.8 hPa | 0 mm | - | 873 W/m² | - |
| 1777573716 | 17.22° C | 30% | 1019.8 hPa | 0 mm | - | 887 W/m² | - |
| 1777572501 | 16.67° C | 36% | 1020 hPa | 0 mm | - | 943 W/m² | - |
| 1777571892 | 16.11° C | 36% | 1020 hPa | 0 mm | - | 924 W/m² | - |
| 1777570377 | 15.56° C | 35% | 1020.1 hPa | 0 mm | - | 875 W/m² | - |
| 1777570069 | 15.56° C | 40% | 1020 hPa | 0 mm | - | 844 W/m² | - |
| 1777568248 | 15° C | 36% | 1020.3 hPa | 0 mm | - | 749 W/m² | - |
| 1777567037 | 14.44° C | 40% | 1020.5 hPa | 0 mm | - | 707 W/m² | - |
| 1777565521 | 12.22° C | 51% | 1020.6 hPa | 0 mm | - | 582 W/m² | - |
| 1777563393 | 10° C | 58% | 1020.5 hPa | 0 mm | - | 338 W/m² | - |
| 1777562784 | 10° C | 62% | 1020.7 hPa | 0 mm | - | 298 W/m² | - |
| 1777561573 | 8.33° C | 64% | 1020.7 hPa | 0 mm | - | 241 W/m² | - |
* Rain latest hour (hover to see other rain measurements)
** Current wind speed in m/s (hover to see current wind gust speed)